Farmington, UT (84025)

18:11 MDT le 04 juillet 2015 (GMT -0600)
KUTBOUNT14 | | Change Station
CLOSE
Current Station
Stations météorologiques personnelles
Location: Rogo's Weather Station (EW2533): Bountiful Bench, UT
Altitude: 5114 ft
Stations météo à proximité

Alt. 5114 ft 40.90 °N, 111.85 °W | Updated 13 seconds ago

Partiellement nuageux
Partiellement nuageux
93.6 ° F
Paraît 90 ° F
N
3.0
Vent Variable Vent de Ouest
Gusts 12.0 mph

Aujourd'hui
Haut(e) -- | Bas -- ° F
--% Risque de précip.
Hier
Haut(e) -- | Bas -- ° F
Precip. -- pouce
6:00 AM 9:02 PM
Lune gibbeuse décroissante, 89% visible
Pression 29.70 pouce
Visibilité 10.0 Miles terrestres
Nuages Ciel dégagé
indice de chaleur 90 ° F
Point de rosée 48 ° F
Humidité 21%
Précipitations 0.00 pouce
Profondeur de la couche neigeuse Non disponible.
UV 4 sur 12
Pollen 6.60 sur 12
Qualité de l'air Non disponible.
Flu Activity Non disponible.
METAR KHIF 042358Z AUTO 28005KT 10SM CLR 33/07 A2991 RMK AO2 SLP056 T03340067 10350 20321 57012

More Conditions Fewer Conditions

Pression 29.70 pouce
Visibilité 10.0 Miles terrestres
Nuages Ciel dégagé
indice de chaleur 90 ° F
Point de rosée 48 ° F
Humidité 21%
Précipitations 0.00 pouce
Profondeur de la couche neigeuse Non disponible.
UV 4 sur 12
Pollen 6.60 sur 12
Qualité de l'air Non disponible.
Flu Activity Non disponible.
METAR KHIF 042358Z AUTO 28005KT 10SM CLR 33/07 A2991 RMK AO2 SLP056 T03340067 10350 20321 57012

More Conditions Fewer Conditions

10-Day Weather Forecast

×

Almanac

Astronomie

Jul. 04, 2015 Lever Coucher
Temps réel
Crépuscule civil
Crépuscule nautique
Crépuscule astronomique
Lune
Durée de lumière visible
Longueur du jour
Tomorrow will be .
, % of the Moon is Illuminated

Extrêmes aujourd'hui

State Highs State Lows

Community

WunderPhotos

Upload Photos

1,835,119 Photos téléchargées !

WunderBlogs® & News

Nearby

Qualité de l'air

  Qualité de l'air Indice de la qualité de l'air Polluant
Not available.

Épaisseur de neige

Station Depth Altitude

Activité sismique

Ville Distance Mag. Time & Date
Minimum magnitude displayed is 2.5.

Températures des eaux côtières

Lieu Température

Stations

Stations météo à proximité

Emplacement de la station Température Refroidissement éolien Point de rosée Humidité Vent Precip. Alt. Mise à jour Type